Terminal Aerodrome Forecast
Issued by NWS

Home | Current Version | Previous Version | Text Only | Print | Product List | Glossary On
Versions: 1 2 3 4 5 6 7 8 9 10 11 12 13 14 15 16 17
000
FTUS45 KRIW 282300
TAFCPR
TAF
KCPR 282330Z 0100/0124 04012KT P6SM -SN SCT015 BKN035
     FM010300 03007KT P6SM VCSH SCT016 OVC026
     FM010700 02006KT 5SM BR SCT012 OVC025
     FM011800 VRB06KT P6SM SCT020 BKN050=

USA.gov is the U.S. government's official web portal to all federal, state and local government web resources and services.